Flight Track Log - Related Links

Times and Time Zones

All times are in EST time to prevent confusion due to time zone crossing. See the GJS6221 flight status page for this flight to view local times or setup timezone preferences in your user account.

Time Position Orientation Groundspeed Altitude Reporting Facility
EST Latitude Longitude Course Direction KTS MPH feet Rate Location/Type
Mon 03:49:54 PM 40.8000 -73.8667 346° North 169 194 1,200  Level New York TRACON
Mon 03:50:54 PM 40.8500 -73.8833 346° North 190 219 3,700 1,850 Climbing New York TRACON
Mon 03:51:54 PM 40.8833 -73.9167 323° Northwest 222 255 4,900 1,400 Climbing New York TRACON
Mon 03:52:54 PM 40.9167 -74.0000 298° West 240 276 6,500 2,450 Climbing New York TRACON
Mon 03:53:54 PM 40.8667 -74.0500 217° Southwest 209 241 9,800 2,650 Climbing New York TRACON
Mon 03:54:54 PM 40.8167 -74.0833 207° Southwest 244 281 11,800 2,450 Climbing New York TRACON
Mon 03:55:54 PM 40.7667 -74.1333 217° Southwest 224 258 14,700 1,800 Climbing New York TRACON
Mon 03:56:54 PM 40.7167 -74.2000 225° Southwest 227 261 15,400 830 Climbing New York TRACON
Mon 03:58:33 PM 40.6028 -74.2233 189° South 267 307 16,900 642 Climbing New York Center
Mon 03:59:33 PM 40.5178 -74.2081 172° South 306 352 17,100 49 Climbing New York Center
Mon 04:00:35 PM 40.4372 -74.1906 171° South 322 371 17,000 50 Descending New York Center
Mon 04:01:32 PM 40.3397 -74.1692 171° South 328 377 17,200 864 Climbing New York Center
Mon 04:02:33 PM 40.2625 -74.1789 185° South 321 369 18,700 1,463 Climbing New York Center
Mon 04:04:12 PM 40.1119 -74.2217 192° South 307 353 21,100 1,396 Climbing Washington Center
Mon 04:05:12 PM 40.0228 -74.2506 194° South 323 372 22,400 1,220 Climbing Washington Center
Mon 04:06:10 PM 39.9419 -74.3117 210° Southwest 335 386 23,500 763 Climbing Washington Center
Mon 04:07:10 PM 39.8678 -74.3858 218° Southwest 340 391 23,900 248 Climbing Washington Center
Mon 04:08:11 PM 39.7917 -74.4656 219° Southwest 346 398 24,000  Climbing Washington Center
Mon 04:09:12 PM 39.7256 -74.5528 225° Southwest 351 404 23,900 -49 Descending Washington Center
Mon 04:10:13 PM 39.6556 -74.6456 226° Southwest 351 404 23,900 504 Level Washington Center
Mon 04:11:11 PM 39.5897 -74.7353 226° Southwest 351 404 24,900 1,008 Climbing Washington Center
Mon 04:12:12 PM 39.5214 -74.8247 225° Southwest 351 404 25,900 984 Climbing Washington Center
Mon 04:13:13 PM 39.4533 -74.9117 225° Southwest 351 404 26,900 1,068 Climbing Washington Center
Mon 04:14:10 PM 39.3828 -75.0036 225° Southwest 356 410 28,000 1,169 Climbing Washington Center
Mon 04:15:11 PM 39.3228 -75.0844 226° Southwest 356 410 29,200 984 Climbing Washington Center
Mon 04:16:12 PM 39.2375 -75.1414 207° Southwest 356 410 30,000 403 Climbing Washington Center
Mon 04:17:10 PM 39.1439 -75.1875 201° Southwest 349 402 30,000  Level Washington Center
Mon 04:18:11 PM 39.0586 -75.2522 211° Southwest 355 409 30,000 99 Level Washington Center
Mon 04:19:11 PM 38.9714 -75.3192 211° Southwest 360 414 30,200 541 Climbing Washington Center
Mon 04:20:13 PM 38.8861 -75.3864 212° Southwest 360 414 31,100 857 Climbing Washington Center
Mon 04:21:10 PM 38.7986 -75.4531 211° Southwest 360 414 31,900 1,026 Climbing Washington Center
Mon 04:22:10 PM 38.7131 -75.5197 211° Southwest 365 420 33,100 1,150 Climbing Washington Center
Mon 04:23:10 PM 38.6297 -75.5864 212° Southwest 365 420 34,200 950 Climbing Washington Center
Mon 04:24:10 PM 38.5483 -75.6475 210° Southwest 355 409 35,000 787 Climbing Washington Center
Mon 04:25:12 PM 38.4650 -75.7111 211° Southwest 355 409 35,800 443 Climbing Washington Center
Mon 04:26:12 PM 38.3856 -75.7744 212° Southwest 349 402 35,900 102 Climbing Washington Center
Mon 04:27:10 PM 38.3042 -75.8297 208° Southwest 349 402 36,000 50 Climbing Washington Center
Mon 04:28:11 PM 38.2208 -75.8931 211° Southwest 349 402 36,000  Level Washington Center
Mon 04:29:11 PM 38.1392 -75.9561 211° Southwest 349 402 36,000  Level Washington Center
Mon 04:30:12 PM 38.0556 -76.0189 211° Southwest 349 402 36,000  Level Washington Center
Mon 04:31:12 PM 37.9742 -76.0792 210° Southwest 349 402 36,000  Level Washington Center
Mon 04:32:11 PM 37.8903 -76.1444 212° Southwest 349 402 36,000  Level Washington Center
Mon 04:33:12 PM 37.8067 -76.2069 211° Southwest 349 402 36,000  Level Washington Center
Mon 04:34:10 PM 37.7250 -76.2667 210° Southwest 349 402 36,000  Level Washington Center
Mon 04:35:10 PM 37.6411 -76.3286 210° Southwest 349 402 36,000  Level Washington Center
Mon 04:36:10 PM 37.5594 -76.3908 211° Southwest 349 402 36,000  Level Washington Center
Mon 04:37:11 PM 37.4797 -76.4581 214° Southwest 349 402 36,000  Level Washington Center
Mon 04:38:12 PM 37.4000 -76.5303 216° Southwest 349 402 36,000  Level Washington Center
Mon 04:39:11 PM 37.3242 -76.6078 219° Southwest 354 407 36,000  Level Washington Center
Mon 04:40:11 PM 37.2464 -76.6797 216° Southwest 354 407 36,000  Level Washington Center
Mon 04:41:12 PM 37.1686 -76.7542 217° Southwest 354 407 36,000  Level Washington Center
Mon 04:42:10 PM 37.0947 -76.8261 218° Southwest 354 407 36,000  Level Washington Center
Mon 04:43:10 PM 37.0169 -76.9003 217° Southwest 349 402 36,000  Level Washington Center
Mon 04:44:11 PM 36.9408 -76.9717 217° Southwest 349 402 36,000  Level Washington Center
Mon 04:45:11 PM 36.8650 -77.0456 218° Southwest 349 402 36,000  Level Washington Center
Mon 04:46:12 PM 36.7889 -77.1194 218° Southwest 349 402 36,000  Level Washington Center
Mon 04:47:13 PM 36.7108 -77.1931 217° Southwest 349 402 36,000  Level Washington Center
Mon 04:48:10 PM 36.6325 -77.2667 217° Southwest 349 402 36,000  Level Washington Center
Mon 04:49:11 PM 36.5564 -77.3400 218° Southwest 349 402 36,000  Level Washington Center
Mon 04:50:12 PM 36.4803 -77.4106 217° Southwest 349 402 36,000  Level Washington Center
Mon 04:51:13 PM 36.4019 -77.4861 218° Southwest 349 402 36,000  Level Washington Center
Mon 04:52:11 PM 36.3236 -77.5589 217° Southwest 349 402 36,000  Level Washington Center
Mon 04:53:11 PM 36.2494 -77.6292 217° Southwest 349 402 36,000  Level Washington Center
Mon 04:54:13 PM 36.1708 -77.7019 217° Southwest 349 402 36,000  Level Washington Center
Mon 04:55:12 PM 36.0903 -77.7742 216° Southwest 349 402 36,000  Level Washington Center
Mon 04:56:10 PM 36.0139 -77.8442 217° Southwest 349 402 36,000  Level Washington Center
Mon 04:57:10 PM 35.9331 -77.9186 217° Southwest 349 402 36,000  Level Washington Center
Mon 04:58:11 PM 35.8525 -77.9906 216° Southwest 355 409 36,000  Level Washington Center
Mon 04:59:12 PM 35.7739 -78.0625 217° Southwest 355 409 36,000  Level Washington Center
Mon 05:00:12 PM 35.6908 -78.1367 216° Southwest 360 414 36,000  Level Washington Center
Mon 05:01:10 PM 35.6122 -78.2083 217° Southwest 360 414 36,000  Level Washington Center
Mon 05:02:12 PM 35.5292 -78.2822 216° Southwest 365 420 36,000  Level Washington Center
Mon 05:03:10 PM 35.4461 -78.3533 215° Southwest 365 420 36,000  Level Washington Center
Mon 05:04:12 PM 35.3628 -78.4344 218° Southwest 365 420 36,000  Level Washington Center
Mon 05:05:10 PM 35.2778 -78.5053 214° Southwest 375 432 36,000  Level Washington Center
Mon 05:06:11 PM 35.1986 -78.5811 218° Southwest 375 432 36,000  Level Washington Center
Mon 05:07:12 PM 35.1175 -78.6542 216° Southwest 375 432 36,000  Level Washington Center
Mon 05:08:10 PM 35.0342 -78.7297 217° Southwest 375 432 36,000  Level Washington Center
Mon 05:09:11 PM 34.9614 -78.7953 216° Southwest 375 432 36,000  Level Washington Center
Mon 05:10:10 PM 34.8781 -78.8681 216° Southwest 375 432 36,000  Level Washington Center
Mon 05:11:43 PM 34.7478 -78.9814 216° Southwest 381 438 36,000  Level Jacksonville Center
Mon 05:12:43 PM 34.6667 -79.0533 216° Southwest 376 433 36,000  Level Jacksonville Center
Mon 05:13:43 PM 34.5856 -79.1275 217° Southwest 376 433 36,000  Level Jacksonville Center
Mon 05:14:43 PM 34.4961 -79.2119 218° Southwest 376 433 36,000  Level Jacksonville Center
Mon 05:15:43 PM 34.4128 -79.2836 215° Southwest 376 433 36,000  Level Jacksonville Center
Mon 05:16:43 PM 34.3333 -79.3522 216° Southwest 376 433 36,000  Level Jacksonville Center
Mon 05:17:43 PM 34.2661 -79.4100 215° Southwest 376 433 36,000  Level Jacksonville Center
Mon 05:18:43 PM 34.1825 -79.4814 215° Southwest 359 413 36,000  Level Jacksonville Center
Mon 05:19:43 PM 34.1008 -79.5497 215° Southwest 359 413 36,000  Level Jacksonville Center
Mon 05:20:43 PM 34.0214 -79.6203 216° Southwest 359 413 36,000  Level Jacksonville Center
Mon 05:21:43 PM 33.9397 -79.6936 217° Southwest 359 413 36,000  Level Jacksonville Center
Mon 05:22:43 PM 33.8581 -79.7614 215° Southwest 359 413 36,000 -650 Level Jacksonville Center
Mon 05:23:43 PM 33.7764 -79.8319 216° Southwest 359 413 34,700 -1,500 Descending Jacksonville Center
Mon 05:24:43 PM 33.6925 -79.9047 216° Southwest 371 427 33,000 -1,800 Descending Jacksonville Center
Mon 05:25:43 PM 33.6067 -79.9800 216° Southwest 376 433 31,100 -1,950 Descending Jacksonville Center
Mon 05:26:43 PM 33.5206 -80.0525 215° Southwest 376 433 29,100 -2,000 Descending Jacksonville Center
Mon 05:27:43 PM 33.4347 -80.1272 216° Southwest 381 438 27,100 -2,000 Descending Jacksonville Center
Mon 05:28:43 PM 33.3528 -80.1969 215° Southwest 376 433 25,100 -2,100 Descending Jacksonville Center
Mon 05:29:43 PM 33.2747 -80.2617 215° Southwest 366 421 22,900 -2,500 Descending Jacksonville Center
Mon 05:30:43 PM 33.1906 -80.3336 216° Southwest 354 407 20,100 -2,300 Descending Jacksonville Center
Mon 05:31:43 PM 33.1250 -80.3875 215° Southwest 340 391 18,300 -2,200 Descending Jacksonville Center
Mon 05:32:43 PM 33.0428 -80.4567 215° Southwest 334 384 15,700 -2,450 Descending Jacksonville Center
Mon 05:33:43 PM 32.9708 -80.5156 214° Southwest 328 377 13,400 -2,000 Descending Jacksonville Center
Mon 05:34:43 PM 32.9031 -80.5719 215° Southwest 322 371 11,700 -1,300 Descending Jacksonville Center
Mon 05:35:43 PM 32.8353 -80.6281 215° Southwest 311 358 10,800 -1,100 Descending Jacksonville Center
Mon 05:36:43 PM 32.7756 -80.6789 216° Southwest 289 333 9,500 -1,450 Descending Jacksonville Center
Mon 05:37:43 PM 32.7200 -80.7247 215° Southwest 269 310 7,900 -750 Descending Jacksonville Center
Mon 05:38:43 PM 32.6664 -80.7728 217° Southwest 256 295 8,000 50 Climbing Jacksonville Center
Mon 05:39:43 PM 32.6131 -80.8161 214° Southwest 256 295 8,000  Level Jacksonville Center
Mon 05:40:43 PM 32.5511 -80.8692 216° Southwest 256 295 8,000  Level Jacksonville Center
Mon 05:41:43 PM 32.4933 -80.9147 214° Southwest 256 295 8,000  Level Jacksonville Center
Mon 05:42:43 PM 32.4397 -80.9578 214° Southwest 256 295 8,000  Level Jacksonville Center
Mon 05:44:00 PM 32.3247 -81.0280 209° Southwest  Level FlightAware Approximate
Mon 05:51:00 PM 32.1276 -81.2021 180° South  Level Estimated
Mon 05:52:00 PM 32.1276 -81.2021 180° South  Level Estimated
Mon 05:53:00 PM 32.1276 -81.2021 180° South  Level Estimated
Mon 05:54:00 PM 32.1276 -81.2021 180° South  Level Estimated
Mon 05:55:00 PM 32.1276 -81.2021 180° South  Level Estimated
Mon 05:56:00 PM 32.1276 -81.2021 180° South  Level Estimated
Mon 05:57:00 PM 32.1276 -81.2021 180° South  Level Estimated
Mon 05:58:00 PM 32.1276 -81.2021 180° South  Level Estimated
Mon 05:59:00 PM 32.1276 -81.2021 180° South  Level Estimated
Mon 06:00:00 PM 32.1276 -81.2021 180° South  Level Estimated
Mon 06:01:00 PM 32.1276 -81.2021 180° South  Level Estimated
Mon 06:02:00 PM 32.1276 -81.2021 180° South  Level Estimated
Mon 06:03:00 PM 32.1276 -81.2021 180° South  Level Estimated

Login

Don't have an account? Register now (free) for customized features, flight alerts, and more!